Terminal Aerodrome Forecast
Issued by NWS Grand Forks, ND

Home | Current Version | Previous Version | Text Only | Print | Product List | Glossary On
Versions: 1 2 3 4 5 6 7 8 9 10 11 12 13 14 15 16 17
000
FTUS43 KFGF 281300 AAA
TAFGFK
TAF AMD
KGFK 281338Z 2814/2912 14009KT P6SM OVC025
      TEMPO 2814/2816 5SM -SN BKN015
     FM290300 14012KT P6SM OVC050=

USA.gov is the U.S. government's official web portal to all federal, state and local government web resources and services.